Elwood, Iowa
Current Conditions -  °F | °C
As of 2:55 PM on Thursday 27 Nov 2014 (Local Time) from KCWI Reporting Station
Clear Clear  
Wind Chill:   Ceiling: Unl
Heat Index: 19°   Visibility: 10mi
Dew Point:   Wind: 12mph
Humidity: 54%   Direction: 310°NW
Pressure: 30.44"   Gusts: NA
Location:  41.99°N, 90.74°W
Report Text: KCWI 272055Z AUTO 31010KT 10SM CLR M07/M15 A3044 RMK AO1 52003
Loading
Personal Weather Stations






























Interactive Weather Map New forecast layout! Learn more

10-Day Weather Forecast

Advertisements
Track Severe Weather on mobile